createdAt,value
2019-05-06T15:01:05.626Z,38.71
2019-05-06T15:03:37.438Z,38.67
2019-05-06T15:06:09.534Z,38.27
2019-05-06T15:08:42.773Z,38.40
2019-05-06T15:11:14.489Z,39.11
2019-05-06T15:13:46.932Z,38.75
2019-05-06T15:16:18.563Z,38.59
2019-05-06T15:18:49.933Z,39.33
2019-05-06T15:21:36.512Z,39.26
2019-05-06T15:23:55.140Z,38.63
2019-05-06T15:26:26.829Z,39.02
2019-05-06T15:28:58.368Z,39.17
2019-05-06T15:31:31.507Z,39.10
2019-05-06T15:34:07.666Z,38.51
2019-05-06T15:36:46.773Z,39.03
2019-05-06T15:39:18.274Z,39.37
2019-05-06T15:41:51.944Z,38.73
2019-05-06T15:44:23.391Z,39.06
2019-05-06T15:46:55.281Z,38.72
2019-05-06T15:49:27.034Z,38.98
2019-05-06T15:51:58.356Z,39.03
2019-05-06T15:54:32.131Z,39.41
2019-05-06T15:57:03.711Z,39.01
2019-05-06T15:59:35.621Z,39.21
2019-05-06T16:02:12.915Z,40.09
2019-05-06T16:04:46.371Z,40.36
2019-05-06T16:07:18.026Z,40.48
2019-05-06T16:09:49.666Z,41.01
2019-05-06T16:12:22.069Z,41.03
2019-05-06T16:14:53.649Z,41.44
2019-05-06T16:17:25.151Z,41.10
2019-05-06T16:19:56.621Z,41.33
2019-05-06T16:22:28.238Z,41.35
2019-05-06T16:25:02.701Z,41.61
2019-05-06T16:27:34.550Z,41.96
2019-05-06T16:30:13.096Z,42.66
2019-05-06T16:32:44.777Z,43.40
2019-05-06T16:35:16.394Z,45.53
2019-05-06T16:37:47.994Z,45.79
2019-05-06T16:40:19.666Z,44.28
2019-05-06T16:42:54.107Z,45.27
2019-05-06T16:45:24.907Z,44.41
2019-05-06T16:47:56.769Z,44.96
2019-05-06T16:50:32.446Z,44.90
2019-05-06T16:53:03.713Z,44.73
2019-05-06T16:55:55.701Z,44.89
2019-05-06T16:58:32.385Z,45.28
2019-05-06T17:01:06.074Z,45.76
2019-05-06T17:03:48.673Z,47.48
2019-05-06T17:06:23.184Z,47.72
2019-05-06T17:08:54.962Z,50.63
2019-05-06T17:11:30.751Z,51.16
2019-05-06T17:13:59.751Z,52.35
2019-05-06T17:16:31.052Z,49.99
2019-05-06T17:19:03.523Z,50.80
2019-05-06T17:21:36.230Z,50.19
2019-05-06T17:24:07.972Z,51.07
2019-05-06T17:26:42.436Z,53.12
2019-05-06T17:29:19.190Z,53.41
2019-05-06T17:31:53.801Z,53.31
2019-05-06T17:34:27.799Z,53.65
2019-05-06T17:37:06.325Z,54.07
2019-05-06T17:39:44.211Z,53.78
2019-05-06T17:42:18.299Z,54.26
2019-05-06T17:47:53.784Z,55.15
2019-05-06T17:53:31.608Z,55.16
2019-05-06T17:56:12.548Z,56.44
2019-05-06T17:59:03.026Z,56.77
2019-05-06T18:01:44.717Z,56.62
2019-05-06T18:04:23.622Z,56.64
2019-05-06T18:06:59.195Z,57.05
2019-05-06T18:09:37.317Z,56.75
2019-05-06T18:12:14.664Z,57.89
2019-05-06T18:17:42.639Z,59.15
2019-05-06T18:20:15.002Z,58.61
2019-05-06T18:22:47.271Z,59.59
2019-05-06T18:25:19.022Z,58.78
2019-05-06T18:27:52.610Z,58.73
2019-05-06T18:30:33.679Z,60.78
2019-05-06T18:33:03.526Z,61.02
2019-05-06T18:35:35.073Z,61.81
2019-05-06T18:38:07.127Z,60.43
2019-05-06T18:40:42.346Z,59.47
2019-05-06T18:43:15.671Z,58.88
2019-05-06T18:45:47.120Z,59.72
2019-05-06T18:48:21.346Z,59.98
2019-05-06T18:50:53.251Z,60.31
2019-05-06T18:53:24.959Z,59.70
2019-05-06T18:55:58.134Z,60.51
2019-05-06T18:58:30.821Z,61.63
2019-05-06T19:01:04.065Z,61.92
2019-05-06T19:03:53.460Z,62.33
2019-05-06T19:06:25.365Z,61.75
2019-05-06T19:09:06.027Z,61.81
2019-05-06T19:11:38.094Z,62.04
2019-05-06T19:14:12.655Z,62.56
2019-05-06T19:16:49.705Z,62.77
2019-05-06T19:19:18.583Z,63.75
2019-05-06T19:21:52.285Z,63.38
2019-05-06T19:24:23.771Z,63.19
2019-05-06T19:26:55.718Z,63.44
2019-05-06T19:29:27.520Z,63.97
2019-05-06T19:31:59.238Z,64.00
2019-05-06T19:34:34.560Z,63.81
2019-05-06T19:37:04.122Z,62.76
2019-05-06T19:39:36.040Z,62.35
2019-05-06T19:42:07.597Z,63.43
2019-05-06T19:44:39.207Z,63.26
2019-05-06T19:47:10.647Z,63.19
2019-05-06T19:49:44.048Z,64.30
2019-05-06T19:52:15.483Z,63.66
2019-05-06T19:54:47.579Z,63.71
2019-05-06T19:57:19.388Z,62.02
2019-05-06T19:59:52.159Z,61.73
2019-05-06T20:02:25.805Z,62.88
2019-05-06T20:04:58.979Z,63.80
2019-05-06T20:07:34.536Z,63.00
2019-05-06T20:10:12.359Z,62.43
2019-05-06T20:13:01.660Z,63.75
2019-05-06T20:15:38.685Z,62.63
2019-05-06T20:18:10.479Z,63.27
2019-05-06T20:20:42.638Z,62.65
2019-05-06T20:23:14.136Z,64.16
2019-05-06T20:25:46.030Z,64.42
2019-05-06T20:28:18.583Z,65.44
2019-05-06T20:30:50.269Z,65.21
2019-05-06T20:33:22.740Z,65.21
2019-05-06T20:35:54.361Z,64.14
2019-05-06T20:38:25.864Z,62.16
2019-05-06T20:40:57.713Z,61.79
2019-05-06T20:43:29.272Z,63.26
2019-05-06T20:46:02.738Z,63.04
2019-05-06T20:48:33.977Z,63.28
2019-05-06T20:51:05.563Z,63.19
2019-05-06T20:53:36.944Z,63.16
2019-05-06T20:56:08.300Z,61.01
2019-05-06T20:58:41.836Z,62.35
2019-05-06T21:01:13.220Z,62.58
2019-05-06T21:03:44.579Z,61.84
2019-05-06T21:06:16.075Z,61.76
2019-05-06T21:08:47.457Z,60.63
2019-05-06T21:11:26.392Z,61.09
2019-05-06T21:13:52.204Z,60.09
2019-05-06T21:16:23.753Z,59.84
2019-05-06T21:18:58.339Z,60.17
2019-05-06T21:21:28.460Z,60.10
2019-05-06T21:24:01.890Z,59.50
2019-05-06T21:41:57.351Z,61.78
2019-05-06T21:44:29.301Z,62.08
2019-05-06T21:47:02.961Z,61.35
2019-05-06T21:49:33.906Z,62.17
2019-05-06T21:52:05.329Z,61.45
2019-05-06T21:54:36.625Z,60.15
2019-05-06T21:57:07.948Z,60.28
2019-05-06T21:59:39.234Z,60.24
2019-05-06T22:02:12.172Z,60.71
2019-05-06T22:04:43.625Z,61.12
2019-05-06T22:07:15.283Z,60.29
2019-05-06T22:09:47.139Z,60.65
2019-05-06T22:12:18.692Z,60.55
2019-05-06T22:14:50.476Z,60.01
2019-05-06T22:17:22.619Z,60.79
2019-05-06T22:19:53.977Z,59.72
2019-05-06T22:22:26.899Z,60.89
2019-05-06T22:24:58.191Z,61.83
2019-05-06T22:27:29.653Z,62.18
2019-05-06T22:30:03.246Z,61.72
2019-05-06T22:32:36.030Z,62.48
2019-05-06T22:35:07.683Z,60.64
2019-05-06T22:37:39.444Z,61.34
2019-05-06T22:40:12.735Z,61.61
2019-05-06T22:42:44.187Z,60.78
2019-05-06T22:45:16.106Z,63.46
2019-05-06T22:47:47.600Z,62.09
2019-05-06T22:50:19.353Z,62.65
2019-05-06T22:52:52.807Z,63.09
2019-05-06T22:55:24.310Z,62.88
2019-05-06T22:57:56.265Z,63.30
2019-05-06T23:00:29.459Z,61.59
2019-05-06T23:03:02.763Z,61.83
2019-05-06T23:05:34.208Z,62.58
2019-05-06T23:08:07.090Z,62.84
2019-05-06T23:10:38.844Z,62.45
2019-05-06T23:13:12.412Z,62.82
2019-05-06T23:15:43.878Z,62.07
2019-05-06T23:18:15.312Z,61.51
2019-05-06T23:20:46.611Z,61.79
2019-05-06T23:23:18.011Z,61.84
2019-05-06T23:25:52.512Z,61.49
2019-05-06T23:28:23.981Z,62.17
2019-05-06T23:30:55.270Z,61.75
2019-05-06T23:33:26.684Z,61.98
2019-05-06T23:35:57.971Z,62.31
2019-05-06T23:39:06.099Z,62.71
2019-05-06T23:42:14.090Z,64.06
2019-05-06T23:45:22.857Z,63.03
2019-05-06T23:48:31.323Z,63.76
2019-05-06T23:51:39.101Z,63.29
2019-05-06T23:54:46.922Z,63.65
2019-05-06T23:57:17.553Z,63.87
2019-05-06T23:59:49.207Z,63.94
